createdAt,value
2022-11-20T00:01:27.966Z,2.14
2022-11-20T00:03:56.999Z,2.19
2022-11-20T00:06:24.202Z,2.26
2022-11-20T00:08:52.032Z,2.28
2022-11-20T00:11:20.936Z,2.34
2022-11-20T00:13:49.892Z,1.76
2022-11-20T00:16:18.981Z,2.28
2022-11-20T00:18:46.205Z,2.28
2022-11-20T00:21:18.523Z,2.33
2022-11-20T00:23:45.420Z,2.39
2022-11-20T00:26:14.772Z,2.47
2022-11-20T00:28:42.507Z,2.48
2022-11-20T00:31:15.063Z,2.44
2022-11-20T00:33:42.739Z,2.34
2022-11-20T00:36:12.225Z,2.28
2022-11-20T00:38:38.684Z,2.36
2022-11-20T00:41:07.932Z,2.36
2022-11-20T00:43:34.591Z,2.43
2022-11-20T00:46:02.650Z,2.45
2022-11-20T00:48:29.429Z,2.41
2022-11-20T00:50:56.486Z,2.51
2022-11-20T00:53:23.625Z,2.52
2022-11-20T00:55:58.210Z,2.46
2022-11-20T00:58:30.037Z,2.32
2022-11-20T01:01:02.023Z,2.30
2022-11-20T01:03:28.495Z,2.26
2022-11-20T01:05:54.919Z,2.19
2022-11-20T01:08:21.357Z,2.03
2022-11-20T01:10:47.719Z,2.05
2022-11-20T01:13:32.711Z,1.99
2022-11-20T01:16:10.558Z,2.13
2022-11-20T01:18:38.769Z,2.05
2022-11-20T01:21:07.786Z,1.88
2022-11-20T01:23:36.317Z,1.92
2022-11-20T01:26:05.671Z,1.85
2022-11-20T01:28:32.529Z,1.62
2022-11-20T01:30:59.153Z,1.81
2022-11-20T01:33:25.789Z,1.90
2022-11-20T01:35:52.927Z,1.86
2022-11-20T01:38:20.969Z,1.91
2022-11-20T01:40:54.995Z,2.02
2022-11-20T01:43:21.868Z,2.04
2022-11-20T01:46:18.785Z,2.11
2022-11-20T01:49:11.717Z,2.21
2022-11-20T01:51:58.058Z,2.12
2022-11-20T01:54:31.298Z,2.16
2022-11-20T01:57:00.461Z,2.23
2022-11-20T01:59:29.220Z,2.07
2022-11-20T02:01:56.897Z,2.38
2022-11-20T02:04:24.330Z,2.37
2022-11-20T02:07:02.304Z,2.35
2022-11-20T02:09:29.460Z,2.28
2022-11-20T02:11:57.259Z,2.37
2022-11-20T02:14:24.348Z,2.28
2022-11-20T02:16:51.654Z,2.23
2022-11-20T02:19:31.000Z,1.86
2022-11-20T02:22:13.884Z,1.27
2022-11-20T02:24:43.820Z,1.82
2022-11-20T02:27:13.633Z,1.82
2022-11-20T02:30:13.142Z,1.65
2022-11-20T02:32:40.288Z,1.63
2022-11-20T02:35:19.343Z,1.85
2022-11-20T02:37:48.276Z,1.63
2022-11-20T02:40:16.089Z,2.11
2022-11-20T02:42:42.652Z,1.97
2022-11-20T02:45:10.976Z,2.28
2022-11-20T02:47:37.539Z,2.34
2022-11-20T02:50:07.391Z,2.37
2022-11-20T02:52:34.004Z,2.43
2022-11-20T02:55:01.656Z,2.07
2022-11-20T02:57:29.161Z,2.17
2022-11-20T02:59:56.455Z,2.03
2022-11-20T03:02:23.281Z,1.83
2022-11-20T03:04:50.063Z,2.44
2022-11-20T03:07:16.958Z,2.48
2022-11-20T03:09:43.664Z,2.53
2022-11-20T03:12:10.861Z,2.49
2022-11-20T03:14:38.012Z,2.54
2022-11-20T03:17:10.860Z,2.62
2022-11-20T03:19:37.910Z,1.96
2022-11-20T03:22:05.764Z,1.92
2022-11-20T03:24:32.766Z,2.26
2022-11-20T03:26:59.562Z,2.03
2022-11-20T03:29:26.423Z,2.18
2022-11-20T03:31:53.496Z,1.82
2022-11-20T03:34:21.076Z,2.37
2022-11-20T03:36:48.401Z,2.16
2022-11-20T03:39:15.021Z,2.38
2022-11-20T03:41:43.107Z,2.49
2022-11-20T03:44:13.799Z,2.71
2022-11-20T03:46:40.478Z,2.69
2022-11-20T03:49:07.022Z,1.74
2022-11-20T03:51:37.232Z,2.59
2022-11-20T03:54:07.242Z,2.76
2022-11-20T03:56:37.092Z,2.78
2022-11-20T03:59:06.834Z,2.52
2022-11-20T04:01:36.131Z,2.71
2022-11-20T04:04:06.218Z,2.68
2022-11-20T04:06:39.199Z,2.55
2022-11-20T04:09:06.860Z,3.03
2022-11-20T04:11:36.025Z,2.96
2022-11-20T04:14:05.524Z,3.04
2022-11-20T04:16:34.692Z,3.08
2022-11-20T04:19:03.577Z,3.08
2022-11-20T04:21:30.464Z,2.97
2022-11-20T04:23:57.476Z,3.14
2022-11-20T04:26:26.530Z,3.06
2022-11-20T04:28:53.507Z,3.19
2022-11-20T04:31:23.180Z,2.95
2022-11-20T04:33:51.154Z,2.59
2022-11-20T04:36:20.591Z,2.90
2022-11-20T04:38:53.852Z,3.00
2022-11-20T04:41:31.380Z,2.92
2022-11-20T04:44:04.722Z,3.08
2022-11-20T04:46:36.453Z,2.09
2022-11-20T04:49:05.552Z,3.19
2022-11-20T04:51:33.026Z,3.20
2022-11-20T04:53:59.612Z,3.13
2022-11-20T04:56:26.176Z,3.08
2022-11-20T04:58:53.086Z,3.11
2022-11-20T05:01:25.040Z,2.89
2022-11-20T05:03:52.912Z,2.85
2022-11-20T05:06:23.096Z,3.34
2022-11-20T05:08:49.876Z,2.95
2022-11-20T05:11:21.138Z,3.37
2022-11-20T05:13:48.139Z,3.33
2022-11-20T05:16:20.600Z,3.40
2022-11-20T05:18:48.154Z,3.40
2022-11-20T05:21:15.236Z,3.37
2022-11-20T05:23:44.920Z,3.37
2022-11-20T05:26:19.871Z,3.44
2022-11-20T05:28:46.919Z,3.52
2022-11-20T05:31:16.193Z,3.39
2022-11-20T05:33:46.312Z,3.49
2022-11-20T05:36:15.489Z,3.22
2022-11-20T05:38:42.637Z,3.64
2022-11-20T05:41:14.952Z,3.66
2022-11-20T05:43:43.177Z,3.72
2022-11-20T05:46:11.863Z,3.57
2022-11-20T05:48:39.697Z,3.70
2022-11-20T05:51:11.356Z,3.69
2022-11-20T05:53:39.714Z,3.67
2022-11-20T05:56:16.060Z,3.59
2022-11-20T05:58:42.845Z,3.79
2022-11-20T06:01:21.835Z,3.78
2022-11-20T06:03:50.376Z,3.85
2022-11-20T06:06:19.264Z,3.85
2022-11-20T06:08:46.810Z,3.84
2022-11-20T06:11:15.573Z,4.01
2022-11-20T06:13:43.532Z,4.01
2022-11-20T06:16:11.814Z,4.05
2022-11-20T06:18:39.973Z,3.85
2022-11-20T06:21:09.239Z,4.14
2022-11-20T06:23:36.787Z,3.90
2022-11-20T06:26:12.110Z,4.25
2022-11-20T06:28:39.353Z,4.23
2022-11-20T06:31:07.295Z,4.01
2022-11-20T06:33:34.721Z,4.31
2022-11-20T06:36:10.091Z,4.34
2022-11-20T06:38:38.404Z,4.35
2022-11-20T06:41:06.897Z,4.40
2022-11-20T06:43:34.420Z,4.26
2022-11-20T06:46:01.883Z,4.35
2022-11-20T06:48:29.267Z,4.23
2022-11-20T06:50:56.601Z,3.91
2022-11-20T06:53:24.157Z,4.16
2022-11-20T06:55:52.269Z,3.95
2022-11-20T06:58:19.566Z,4.44
2022-11-20T07:00:48.139Z,4.48
2022-11-20T07:03:14.788Z,4.36
2022-11-20T07:05:41.828Z,4.48
2022-11-20T07:08:09.199Z,4.09
2022-11-20T07:10:36.256Z,4.55
2022-11-20T07:13:02.992Z,4.47
2022-11-20T07:15:29.815Z,4.25
2022-11-20T07:17:59.018Z,4.59
2022-11-20T07:20:25.706Z,4.29
2022-11-20T07:22:57.585Z,4.58
2022-11-20T07:25:38.401Z,4.62
2022-11-20T07:28:05.877Z,4.49
2022-11-20T07:30:32.379Z,4.45
2022-11-20T07:32:59.116Z,4.40
2022-11-20T07:35:26.163Z,4.32
2022-11-20T07:37:52.997Z,3.88
2022-11-20T07:40:20.063Z,4.41
2022-11-20T07:42:55.235Z,4.69
2022-11-20T07:45:24.401Z,4.56
2022-11-20T07:47:52.233Z,4.63
2022-11-20T07:50:19.765Z,4.79
2022-11-20T07:52:46.858Z,4.80
2022-11-20T07:55:15.355Z,4.74
2022-11-20T07:57:42.436Z,4.48
2022-11-20T08:00:11.832Z,4.92
2022-11-20T08:02:42.476Z,4.55
2022-11-20T08:05:10.871Z,4.69
2022-11-20T08:07:45.321Z,4.89
2022-11-20T08:10:14.661Z,4.93
2022-11-20T08:13:08.052Z,5.00
2022-11-20T08:15:37.676Z,4.61
2022-11-20T08:18:32.470Z,5.09
2022-11-20T08:21:08.083Z,5.10
2022-11-20T08:23:35.606Z,4.80
2022-11-20T08:26:02.216Z,5.12
2022-11-20T08:28:28.953Z,5.07
2022-11-20T08:31:02.483Z,5.02
2022-11-20T08:33:29.996Z,5.12
2022-11-20T08:36:04.985Z,5.21
2022-11-20T08:38:32.151Z,4.86
2022-11-20T08:41:23.587Z,4.98
2022-11-20T08:44:02.914Z,5.16
2022-11-20T08:46:38.179Z,5.31
2022-11-20T08:49:06.136Z,5.88
2022-11-20T08:51:38.043Z,6.09
2022-11-20T08:54:08.065Z,6.25
2022-11-20T08:56:36.571Z,6.33
2022-11-20T08:59:27.064Z,6.14
2022-11-20T09:01:50.022Z,6.84
2022-11-20T09:04:17.005Z,6.74
2022-11-20T09:06:44.178Z,6.55
2022-11-20T09:09:14.446Z,6.84
2022-11-20T09:11:41.097Z,6.61
2022-11-20T09:14:10.449Z,6.23
2022-11-20T09:16:37.328Z,6.01
2022-11-20T09:21:50.789Z,5.88
2022-11-20T09:24:17.477Z,5.53
2022-11-20T09:26:44.175Z,5.91
2022-11-20T09:29:10.977Z,6.04
2022-11-20T09:31:37.627Z,5.76
2022-11-20T09:34:04.392Z,5.87
2022-11-20T09:36:31.557Z,5.34
2022-11-20T09:38:58.154Z,5.78
2022-11-20T09:41:41.083Z,5.91
2022-11-20T09:44:25.971Z,5.94
2022-11-20T09:47:23.605Z,5.27
2022-11-20T09:50:26.343Z,5.89
2022-11-20T09:53:12.178Z,5.96
2022-11-20T09:55:42.816Z,5.84
2022-11-20T09:58:31.174Z,5.84
2022-11-20T10:01:01.920Z,5.84
2022-11-20T10:04:01.864Z,5.92
2022-11-20T10:06:43.591Z,5.70
2022-11-20T10:09:23.077Z,5.93
2022-11-20T10:12:11.492Z,5.76
2022-11-20T10:14:47.037Z,5.84
2022-11-20T10:18:06.909Z,5.69
2022-11-20T10:20:43.996Z,5.79
2022-11-20T10:23:32.428Z,5.93
2022-11-20T10:26:32.445Z,6.03
2022-11-20T10:29:16.827Z,6.00
2022-11-20T10:31:53.028Z,5.97
2022-11-20T10:34:29.890Z,5.79
2022-11-20T10:37:04.762Z,5.86
2022-11-20T10:39:38.812Z,5.88
2022-11-20T10:42:12.109Z,5.98
2022-11-20T10:45:05.756Z,6.04
2022-11-20T10:47:33.734Z,6.31
2022-11-20T10:50:06.568Z,6.30
2022-11-20T10:52:57.382Z,6.57
2022-11-20T10:55:42.626Z,6.96
2022-11-20T10:58:20.072Z,6.87
2022-11-20T11:00:46.744Z,6.76
2022-11-20T11:03:29.867Z,6.74
2022-11-20T11:06:09.036Z,6.12
2022-11-20T11:08:40.006Z,6.54
2022-11-20T11:11:23.898Z,7.13
2022-11-20T11:13:51.520Z,7.18
2022-11-20T11:16:27.019Z,7.21
2022-11-20T11:19:05.281Z,7.26
2022-11-20T11:21:31.902Z,7.44
2022-11-20T11:24:26.994Z,6.71
2022-11-20T11:26:59.002Z,7.60
2022-11-20T11:29:27.828Z,7.69
2022-11-20T11:32:35.668Z,7.93
2022-11-20T11:35:29.863Z,7.95
2022-11-20T11:38:05.835Z,7.36
2022-11-20T11:40:35.651Z,7.79
2022-11-20T11:43:28.098Z,7.80
2022-11-20T11:45:57.116Z,7.66
2022-11-20T11:48:25.938Z,7.37
2022-11-20T11:50:54.886Z,7.35
2022-11-20T11:53:25.014Z,7.01
2022-11-20T11:56:12.267Z,7.24
2022-11-20T11:58:51.805Z,7.18
2022-11-20T12:01:41.852Z,6.96
2022-11-20T12:04:42.874Z,6.90
2022-11-20T12:07:47.732Z,6.96
2022-11-20T12:10:31.005Z,6.95
2022-11-20T12:13:05.739Z,6.53
2022-11-20T12:15:35.145Z,6.92
2022-11-20T12:18:02.350Z,6.76
2022-11-20T12:20:45.623Z,6.86
2022-11-20T12:23:44.264Z,6.98
2022-11-20T12:26:48.240Z,6.98
2022-11-20T12:29:54.553Z,6.79
2022-11-20T12:32:40.776Z,6.99
2022-11-20T12:35:42.926Z,6.89
2022-11-20T12:38:40.389Z,6.96
2022-11-20T12:41:39.414Z,7.02
2022-11-20T12:44:51.920Z,6.92
2022-11-20T12:47:55.670Z,6.87
2022-11-20T12:51:00.426Z,6.91
2022-11-20T12:53:49.424Z,6.98
2022-11-20T12:56:24.367Z,6.77
2022-11-20T12:59:07.582Z,6.81
2022-11-20T13:01:48.668Z,6.89
2022-11-20T13:04:34.239Z,7.03
2022-11-20T13:07:03.654Z,6.85
2022-11-20T13:09:31.195Z,6.39
2022-11-20T13:12:17.236Z,6.88
2022-11-20T13:14:57.189Z,6.61
2022-11-20T13:17:23.719Z,6.87
2022-11-20T13:19:55.818Z,6.77
2022-11-20T13:22:26.915Z,6.94
2022-11-20T13:24:54.082Z,6.86
2022-11-20T13:27:24.973Z,6.94
2022-11-20T13:30:26.701Z,7.05
2022-11-20T13:33:02.254Z,7.09
2022-11-20T13:35:36.389Z,7.13
2022-11-20T13:38:09.688Z,6.54
2022-11-20T13:40:57.933Z,7.12
2022-11-20T13:43:27.427Z,7.01
2022-11-20T13:46:01.404Z,7.01
2022-11-20T13:48:50.636Z,7.00
2022-11-20T13:51:42.010Z,7.01
2022-11-20T13:54:13.626Z,6.98
2022-11-20T13:57:11.439Z,6.99
2022-11-20T13:59:44.873Z,6.97
2022-11-20T14:02:17.854Z,6.91
2022-11-20T14:04:50.648Z,7.02
2022-11-20T14:07:20.723Z,6.76
2022-11-20T14:09:55.939Z,6.90
2022-11-20T14:12:31.843Z,6.91
2022-11-20T14:14:59.633Z,6.62
2022-11-20T14:17:35.084Z,6.65
2022-11-20T14:20:26.423Z,6.74
2022-11-20T14:23:37.711Z,6.55
2022-11-20T14:27:13.918Z,4.86
2022-11-20T14:34:55.881Z,5.47
2022-11-20T14:37:31.389Z,5.82
2022-11-20T14:40:00.194Z,6.34
2022-11-20T14:42:29.389Z,6.57
2022-11-20T14:45:01.236Z,6.40
2022-11-20T14:47:32.267Z,5.41
2022-11-20T14:50:07.220Z,6.19
2022-11-20T14:52:36.572Z,6.15
2022-11-20T14:55:03.832Z,5.92
2022-11-20T14:57:36.218Z,6.44
2022-11-20T15:00:15.021Z,6.47
2022-11-20T15:02:46.833Z,6.18
2022-11-20T15:05:14.377Z,6.31
2022-11-20T15:07:47.280Z,6.35
2022-11-20T15:10:19.750Z,6.27
2022-11-20T15:13:14.403Z,6.24
2022-11-20T15:15:52.727Z,6.19
2022-11-20T15:18:22.368Z,6.09
2022-11-20T15:20:52.935Z,6.07
2022-11-20T15:23:21.216Z,6.13
2022-11-20T15:25:49.761Z,6.06
2022-11-20T15:28:20.097Z,6.10
2022-11-20T15:30:48.609Z,5.75
2022-11-20T15:33:19.162Z,5.61
2022-11-20T15:36:04.482Z,5.32
2022-11-20T15:38:43.506Z,4.71
2022-11-20T15:41:11.328Z,5.55
2022-11-20T15:43:38.318Z,5.74
2022-11-20T15:46:08.773Z,5.69
2022-11-20T15:48:42.084Z,5.69
2022-11-20T15:51:13.044Z,5.73
2022-11-20T15:53:41.472Z,5.72
2022-11-20T15:56:16.510Z,5.71
2022-11-20T15:58:43.109Z,5.45
2022-11-20T16:01:16.674Z,5.67
2022-11-20T16:03:47.222Z,5.26
2022-11-20T16:06:14.555Z,5.25
2022-11-20T16:08:41.344Z,5.32
2022-11-20T16:11:28.532Z,5.64
2022-11-20T16:14:13.993Z,5.57
2022-11-20T16:16:42.586Z,5.69
2022-11-20T16:19:14.105Z,5.76
2022-11-20T16:21:42.520Z,5.69
2022-11-20T16:24:12.564Z,5.33
2022-11-20T16:26:40.344Z,5.71
2022-11-20T16:31:48.934Z,5.37
2022-11-20T16:34:17.435Z,5.31
2022-11-20T16:36:45.878Z,5.65
2022-11-20T16:39:13.066Z,4.82
2022-11-20T16:41:40.126Z,5.58
2022-11-20T16:44:11.658Z,5.17
2022-11-20T16:46:40.710Z,5.54
2022-11-20T16:49:11.908Z,5.51
2022-11-20T16:51:38.786Z,5.29
2022-11-20T16:54:07.564Z,5.29
2022-11-20T16:56:36.728Z,5.50
2022-11-20T16:59:04.070Z,5.44
2022-11-20T17:01:31.411Z,5.13
2022-11-20T17:04:07.145Z,5.31
2022-11-20T17:06:41.306Z,5.33
2022-11-20T17:09:10.987Z,5.28
2022-11-20T17:11:38.024Z,5.27
2022-11-20T17:14:07.555Z,5.24
2022-11-20T17:16:35.638Z,4.84
2022-11-20T17:19:03.938Z,5.29
2022-11-20T17:21:32.459Z,5.08
2022-11-20T17:24:05.538Z,5.23
2022-11-20T17:26:32.638Z,5.29
2022-11-20T17:29:24.160Z,5.25
2022-11-20T17:31:51.425Z,4.67
2022-11-20T17:34:18.523Z,5.04
2022-11-20T17:36:46.184Z,4.92
2022-11-20T17:39:15.417Z,5.06
2022-11-20T17:41:42.387Z,5.01
2022-11-20T17:44:10.675Z,4.92
2022-11-20T17:46:37.248Z,5.12
2022-11-20T17:49:04.990Z,4.83
2022-11-20T17:51:35.340Z,4.89
2022-11-20T17:54:09.138Z,5.12
2022-11-20T17:56:55.293Z,4.78
2022-11-20T17:59:22.727Z,4.95
2022-11-20T18:01:49.599Z,4.55
2022-11-20T18:04:17.789Z,4.49
2022-11-20T18:06:44.273Z,4.73
2022-11-20T18:09:12.312Z,4.01
2022-11-20T18:11:43.748Z,4.78
2022-11-20T18:14:36.238Z,4.74
2022-11-20T18:17:12.132Z,4.71
2022-11-20T18:19:51.669Z,4.69
2022-11-20T18:22:31.245Z,4.59
2022-11-20T18:24:58.398Z,4.59
2022-11-20T18:27:25.256Z,4.76
2022-11-20T18:29:53.545Z,4.50
2022-11-20T18:32:23.935Z,4.71
2022-11-20T18:34:51.639Z,4.51
2022-11-20T18:37:27.507Z,3.64
2022-11-20T18:39:54.354Z,4.57
2022-11-20T18:42:39.603Z,4.99
2022-11-20T18:45:08.180Z,5.46
2022-11-20T18:47:38.193Z,5.82
2022-11-20T18:50:07.952Z,6.19
2022-11-20T18:52:40.018Z,6.02
2022-11-20T18:55:08.592Z,5.88
2022-11-20T18:57:35.260Z,5.43
2022-11-20T19:00:08.465Z,5.00
2022-11-20T19:02:41.606Z,5.15
2022-11-20T19:05:12.604Z,5.12
2022-11-20T19:07:39.424Z,4.98
2022-11-20T19:10:06.956Z,4.83
2022-11-20T19:12:33.791Z,4.20
2022-11-20T19:15:00.314Z,4.34
2022-11-20T19:17:26.916Z,4.52
2022-11-20T19:19:55.090Z,4.36
2022-11-20T19:22:22.821Z,4.57
2022-11-20T19:24:49.981Z,4.37
2022-11-20T19:27:16.674Z,4.30
2022-11-20T19:29:43.222Z,4.30
2022-11-20T19:32:10.202Z,4.35
2022-11-20T19:34:37.022Z,4.41
2022-11-20T19:37:05.309Z,4.46
2022-11-20T19:39:31.983Z,3.79
2022-11-20T19:41:58.561Z,4.36
2022-11-20T19:44:25.099Z,4.41
2022-11-20T19:46:51.834Z,4.42
2022-11-20T19:49:18.402Z,4.05
2022-11-20T19:51:48.838Z,4.53
2022-11-20T19:54:17.648Z,4.35
2022-11-20T19:56:46.640Z,4.55
2022-11-20T19:59:14.135Z,4.47
2022-11-20T20:01:42.967Z,4.35
2022-11-20T20:04:09.763Z,4.24
2022-11-20T20:06:43.522Z,4.53
2022-11-20T20:09:12.385Z,4.56
2022-11-20T20:11:40.172Z,4.57
2022-11-20T20:14:16.731Z,4.63
2022-11-20T20:16:45.094Z,4.56
2022-11-20T20:19:13.967Z,4.62
2022-11-20T20:21:41.426Z,4.33
2022-11-20T20:24:09.541Z,4.31
2022-11-20T20:26:37.755Z,4.66
2022-11-20T20:29:04.510Z,4.36
2022-11-20T20:31:33.176Z,4.33
2022-11-20T20:34:00.189Z,4.60
2022-11-20T20:36:27.004Z,4.65
2022-11-20T20:38:59.303Z,4.59
2022-11-20T20:41:26.451Z,4.55
2022-11-20T20:44:11.922Z,4.59
2022-11-20T20:46:46.261Z,4.57
2022-11-20T20:49:16.632Z,4.23
2022-11-20T20:51:45.167Z,4.07
2022-11-20T20:54:11.684Z,4.54
2022-11-20T20:56:38.666Z,4.58
2022-11-20T20:59:05.435Z,4.34
2022-11-20T21:01:32.127Z,4.42
2022-11-20T21:03:58.671Z,3.64
2022-11-20T21:06:25.824Z,4.13
2022-11-20T21:08:52.563Z,4.69
2022-11-20T21:11:20.374Z,4.47
2022-11-20T21:13:53.527Z,2.63
2022-11-20T21:16:23.031Z,4.64
2022-11-20T21:18:49.896Z,4.36
2022-11-20T21:21:36.221Z,4.11
2022-11-20T21:24:03.830Z,4.68
2022-11-20T21:26:30.930Z,4.45
2022-11-20T21:28:58.947Z,4.52
2022-11-20T21:31:27.173Z,4.37
2022-11-20T21:33:55.560Z,4.33
2022-11-20T21:36:24.349Z,4.64
2022-11-20T21:38:54.687Z,4.61
2022-11-20T21:41:22.231Z,4.24
2022-11-20T21:44:15.825Z,4.21
2022-11-20T21:46:39.427Z,4.32
2022-11-20T21:49:06.352Z,4.37
2022-11-20T21:51:33.319Z,4.45
2022-11-20T21:54:00.262Z,4.57
2022-11-20T21:56:27.006Z,4.03
2022-11-20T21:58:54.967Z,4.42
2022-11-20T22:01:24.301Z,4.56
2022-11-20T22:03:55.411Z,4.61
2022-11-20T22:06:22.085Z,4.42
2022-11-20T22:08:49.231Z,4.08
2022-11-20T22:11:18.987Z,4.65
2022-11-20T22:14:04.875Z,4.67
2022-11-20T22:16:33.793Z,4.69
2022-11-20T22:19:01.124Z,4.68
2022-11-20T22:21:29.037Z,4.06
2022-11-20T22:23:56.108Z,4.55
2022-11-20T22:26:28.478Z,4.62
2022-11-20T22:28:57.331Z,4.42
2022-11-20T22:31:26.068Z,4.59
2022-11-20T22:33:53.410Z,4.02
2022-11-20T22:36:23.362Z,4.68
2022-11-20T22:38:50.264Z,4.53
2022-11-20T22:41:19.834Z,4.60
2022-11-20T22:43:47.273Z,4.30
2022-11-20T22:46:20.362Z,4.64
2022-11-20T22:48:52.802Z,4.61
2022-11-20T22:51:24.167Z,4.44
2022-11-20T22:53:51.075Z,4.42
2022-11-20T22:56:18.742Z,4.22
2022-11-20T22:58:47.830Z,4.52
2022-11-20T23:01:22.911Z,4.08
2022-11-20T23:03:52.258Z,4.57
2022-11-20T23:06:20.235Z,4.57
2022-11-20T23:08:47.412Z,4.47
2022-11-20T23:11:20.100Z,4.51
2022-11-20T23:13:48.012Z,4.27
2022-11-20T23:16:17.610Z,4.55
2022-11-20T23:18:44.764Z,4.54
2022-11-20T23:21:16.972Z,4.37
2022-11-20T23:23:48.172Z,4.45
2022-11-20T23:26:16.202Z,4.45
2022-11-20T23:28:43.715Z,3.96
2022-11-20T23:31:11.859Z,4.45
2022-11-20T23:33:40.360Z,4.38
2022-11-20T23:36:07.664Z,4.57
2022-11-20T23:38:34.678Z,3.93
2022-11-20T23:41:01.574Z,4.44
2022-11-20T23:43:31.178Z,4.57
2022-11-20T23:45:59.802Z,4.57
2022-11-20T23:48:29.579Z,4.60
2022-11-20T23:50:57.193Z,4.61
2022-11-20T23:53:25.390Z,4.60
2022-11-20T23:55:54.177Z,4.19
2022-11-20T23:58:21.775Z,4.57
